sensor_id;sensor_type;location;lat;lon;timestamp;P1;durP1;ratioP1;P2;durP2;ratioP2
7334;SDS011;3708;42.632;23.378;2022-07-25T00:01:13;12.52;;;11.35;;
7334;SDS011;3708;42.632;23.378;2022-07-25T00:03:40;14.48;;;11.88;;
7334;SDS011;3708;42.632;23.378;2022-07-25T00:06:07;12.75;;;11.60;;
7334;SDS011;3708;42.632;23.378;2022-07-25T00:08:34;12.57;;;11.38;;
7334;SDS011;3708;42.632;23.378;2022-07-25T00:11:01;16.20;;;12.27;;
7334;SDS011;3708;42.632;23.378;2022-07-25T00:13:28;13.10;;;11.73;;
7334;SDS011;3708;42.632;23.378;2022-07-25T00:15:55;13.05;;;11.75;;
7334;SDS011;3708;42.632;23.378;2022-07-25T00:18:23;12.50;;;11.20;;
7334;SDS011;3708;42.632;23.378;2022-07-25T00:20:50;12.63;;;11.43;;
7334;SDS011;3708;42.632;23.378;2022-07-25T00:23:17;12.88;;;11.57;;
7334;SDS011;3708;42.632;23.378;2022-07-25T00:25:44;12.15;;;9.95;;
7334;SDS011;3708;42.632;23.378;2022-07-25T00:28:11;12.27;;;11.10;;
7334;SDS011;3708;42.632;23.378;2022-07-25T00:30:39;12.77;;;11.48;;
7334;SDS011;3708;42.632;23.378;2022-07-25T00:33:06;12.50;;;10.90;;
7334;SDS011;3708;42.632;23.378;2022-07-25T00:35:45;12.52;;;11.23;;
7334;SDS011;3708;42.632;23.378;2022-07-25T00:38:12;16.92;;;11.30;;
7334;SDS011;3708;42.632;23.378;2022-07-25T00:40:44;12.27;;;10.80;;
7334;SDS011;3708;42.632;23.378;2022-07-25T00:43:12;10.55;;;9.48;;
7334;SDS011;3708;42.632;23.378;2022-07-25T00:45:38;13.07;;;10.70;;
7334;SDS011;3708;42.632;23.378;2022-07-25T00:48:06;11.82;;;10.68;;
7334;SDS011;3708;42.632;23.378;2022-07-25T00:50:33;12.07;;;10.88;;
7334;SDS011;3708;42.632;23.378;2022-07-25T00:53:05;12.73;;;11.45;;
7334;SDS011;3708;42.632;23.378;2022-07-25T00:55:33;11.82;;;10.38;;
7334;SDS011;3708;42.632;23.378;2022-07-25T00:58:00;12.57;;;11.45;;
7334;SDS011;3708;42.632;23.378;2022-07-25T01:00:27;10.82;;;9.73;;
7334;SDS011;3708;42.632;23.378;2022-07-25T01:02:54;13.80;;;11.38;;
7334;SDS011;3708;42.632;23.378;2022-07-25T01:05:21;13.93;;;10.43;;
7334;SDS011;3708;42.632;23.378;2022-07-25T01:07:51;12.45;;;11.25;;
7334;SDS011;3708;42.632;23.378;2022-07-25T01:10:21;11.77;;;10.57;;
7334;SDS011;3708;42.632;23.378;2022-07-25T01:12:49;11.50;;;10.40;;
7334;SDS011;3708;42.632;23.378;2022-07-25T01:15:19;12.10;;;10.40;;
7334;SDS011;3708;42.632;23.378;2022-07-25T01:17:48;12.13;;;10.70;;
7334;SDS011;3708;42.632;23.378;2022-07-25T01:20:17;11.55;;;10.35;;
7334;SDS011;3708;42.632;23.378;2022-07-25T01:22:46;11.55;;;9.93;;
7334;SDS011;3708;42.632;23.378;2022-07-25T01:25:14;10.57;;;9.55;;
7334;SDS011;3708;42.632;23.378;2022-07-25T01:27:44;11.35;;;9.88;;
7334;SDS011;3708;42.632;23.378;2022-07-25T01:30:13;12.73;;;11.45;;
7334;SDS011;3708;42.632;23.378;2022-07-25T01:32:43;15.70;;;10.00;;
7334;SDS011;3708;42.632;23.378;2022-07-25T01:35:11;12.48;;;10.75;;
7334;SDS011;3708;42.632;23.378;2022-07-25T01:37:41;11.55;;;10.20;;
7334;SDS011;3708;42.632;23.378;2022-07-25T01:40:08;12.07;;;10.18;;
7334;SDS011;3708;42.632;23.378;2022-07-25T01:42:35;11.43;;;10.02;;
7334;SDS011;3708;42.632;23.378;2022-07-25T01:45:03;13.10;;;10.25;;
7334;SDS011;3708;42.632;23.378;2022-07-25T01:47:30;12.45;;;10.77;;
7334;SDS011;3708;42.632;23.378;2022-07-25T01:49:57;16.02;;;9.93;;
7334;SDS011;3708;42.632;23.378;2022-07-25T01:52:25;12.35;;;11.15;;
7334;SDS011;3708;42.632;23.378;2022-07-25T01:54:53;10.93;;;9.77;;
7334;SDS011;3708;42.632;23.378;2022-07-25T01:57:20;11.45;;;10.27;;
7334;SDS011;3708;42.632;23.378;2022-07-25T01:59:47;11.45;;;10.35;;
7334;SDS011;3708;42.632;23.378;2022-07-25T02:02:14;15.32;;;9.70;;
7334;SDS011;3708;42.632;23.378;2022-07-25T02:04:42;10.60;;;9.60;;
7334;SDS011;3708;42.632;23.378;2022-07-25T02:07:10;11.48;;;10.27;;
7334;SDS011;3708;42.632;23.378;2022-07-25T02:10:11;13.75;;;10.43;;
7334;SDS011;3708;42.632;23.378;2022-07-25T02:12:36;12.32;;;11.13;;
7334;SDS011;3708;42.632;23.378;2022-07-25T02:15:05;14.13;;;10.93;;
7334;SDS011;3708;42.632;23.378;2022-07-25T02:17:40;12.32;;;11.07;;
7334;SDS011;3708;42.632;23.378;2022-07-25T02:20:16;12.35;;;11.15;;
7334;SDS011;3708;42.632;23.378;2022-07-25T02:22:44;11.95;;;10.80;;
7334;SDS011;3708;42.632;23.378;2022-07-25T02:25:14;12.40;;;11.30;;
7334;SDS011;3708;42.632;23.378;2022-07-25T02:27:41;12.50;;;11.20;;
7334;SDS011;3708;42.632;23.378;2022-07-25T02:30:09;12.98;;;10.77;;
7334;SDS011;3708;42.632;23.378;2022-07-25T02:32:36;10.88;;;9.77;;
7334;SDS011;3708;42.632;23.378;2022-07-25T02:35:04;12.70;;;11.43;;
7334;SDS011;3708;42.632;23.378;2022-07-25T02:37:32;15.20;;;10.68;;
7334;SDS011;3708;42.632;23.378;2022-07-25T02:40:04;11.80;;;10.60;;
7334;SDS011;3708;42.632;23.378;2022-07-25T02:42:36;11.70;;;10.65;;
7334;SDS011;3708;42.632;23.378;2022-07-25T02:45:04;11.45;;;10.35;;
7334;SDS011;3708;42.632;23.378;2022-07-25T02:47:32;11.40;;;10.30;;
7334;SDS011;3708;42.632;23.378;2022-07-25T02:49:59;13.07;;;10.60;;
7334;SDS011;3708;42.632;23.378;2022-07-25T02:52:26;12.10;;;10.85;;
7334;SDS011;3708;42.632;23.378;2022-07-25T02:54:55;14.27;;;11.55;;
7334;SDS011;3708;42.632;23.378;2022-07-25T02:57:24;12.20;;;10.90;;
7334;SDS011;3708;42.632;23.378;2022-07-25T02:59:53;13.50;;;11.32;;
7334;SDS011;3708;42.632;23.378;2022-07-25T03:02:19;12.13;;;10.82;;
7334;SDS011;3708;42.632;23.378;2022-07-25T03:04:48;12.18;;;10.93;;
7334;SDS011;3708;42.632;23.378;2022-07-25T03:07:22;12.68;;;10.65;;
7334;SDS011;3708;42.632;23.378;2022-07-25T03:10:05;12.65;;;11.30;;
7334;SDS011;3708;42.632;23.378;2022-07-25T03:12:34;12.20;;;10.63;;
7334;SDS011;3708;42.632;23.378;2022-07-25T03:15:03;14.40;;;11.45;;
7334;SDS011;3708;42.632;23.378;2022-07-25T03:17:31;12.77;;;10.93;;
7334;SDS011;3708;42.632;23.378;2022-07-25T03:19:59;13.63;;;10.43;;
7334;SDS011;3708;42.632;23.378;2022-07-25T03:22:37;12.77;;;10.85;;
7334;SDS011;3708;42.632;23.378;2022-07-25T03:25:06;11.68;;;10.48;;
7334;SDS011;3708;42.632;23.378;2022-07-25T03:27:34;11.60;;;10.52;;
7334;SDS011;3708;42.632;23.378;2022-07-25T03:30:06;11.20;;;10.00;;
7334;SDS011;3708;42.632;23.378;2022-07-25T03:32:37;12.48;;;10.30;;
7334;SDS011;3708;42.632;23.378;2022-07-25T03:35:06;11.93;;;10.73;;
7334;SDS011;3708;42.632;23.378;2022-07-25T03:37:35;11.82;;;10.63;;
7334;SDS011;3708;42.632;23.378;2022-07-25T03:40:02;12.40;;;10.88;;
7334;SDS011;3708;42.632;23.378;2022-07-25T03:42:30;12.32;;;10.65;;
7334;SDS011;3708;42.632;23.378;2022-07-25T03:44:57;11.57;;;10.13;;
7334;SDS011;3708;42.632;23.378;2022-07-25T03:47:25;11.60;;;10.48;;
7334;SDS011;3708;42.632;23.378;2022-07-25T03:49:52;11.70;;;10.50;;
7334;SDS011;3708;42.632;23.378;2022-07-25T03:52:20;10.93;;;9.85;;
7334;SDS011;3708;42.632;23.378;2022-07-25T03:54:47;13.20;;;9.50;;
7334;SDS011;3708;42.632;23.378;2022-07-25T03:57:14;12.77;;;9.55;;
7334;SDS011;3708;42.632;23.378;2022-07-25T03:59:41;10.43;;;9.25;;
7334;SDS011;3708;42.632;23.378;2022-07-25T04:02:08;11.20;;;9.98;;
7334;SDS011;3708;42.632;23.378;2022-07-25T04:04:36;10.40;;;9.40;;
7334;SDS011;3708;42.632;23.378;2022-07-25T04:07:03;10.20;;;9.18;;
7334;SDS011;3708;42.632;23.378;2022-07-25T04:09:30;10.38;;;8.90;;
7334;SDS011;3708;42.632;23.378;2022-07-25T04:11:57;13.75;;;8.90;;
7334;SDS011;3708;42.632;23.378;2022-07-25T04:14:24;14.20;;;8.48;;
7334;SDS011;3708;42.632;23.378;2022-07-25T04:16:52;10.18;;;8.05;;
7334;SDS011;3708;42.632;23.378;2022-07-25T04:19:19;9.63;;;8.57;;
7334;SDS011;3708;42.632;23.378;2022-07-25T04:21:47;11.38;;;8.63;;
7334;SDS011;3708;42.632;23.378;2022-07-25T04:24:14;14.38;;;8.30;;
7334;SDS011;3708;42.632;23.378;2022-07-25T04:26:41;9.80;;;8.15;;
7334;SDS011;3708;42.632;23.378;2022-07-25T04:29:08;12.00;;;8.15;;
7334;SDS011;3708;42.632;23.378;2022-07-25T04:31:35;9.73;;;8.65;;
7334;SDS011;3708;42.632;23.378;2022-07-25T04:34:05;9.05;;;7.70;;
7334;SDS011;3708;42.632;23.378;2022-07-25T04:36:32;10.48;;;7.63;;
7334;SDS011;3708;42.632;23.378;2022-07-25T04:39:01;10.75;;;7.60;;
7334;SDS011;3708;42.632;23.378;2022-07-25T04:41:28;7.70;;;6.85;;
7334;SDS011;3708;42.632;23.378;2022-07-25T04:43:55;10.38;;;7.60;;
7334;SDS011;3708;42.632;23.378;2022-07-25T04:46:22;10.88;;;7.82;;
7334;SDS011;3708;42.632;23.378;2022-07-25T04:48:49;11.38;;;6.45;;
7334;SDS011;3708;42.632;23.378;2022-07-25T04:51:16;7.30;;;6.65;;
7334;SDS011;3708;42.632;23.378;2022-07-25T04:53:47;9.98;;;7.20;;
7334;SDS011;3708;42.632;23.378;2022-07-25T04:56:16;8.55;;;6.50;;
7334;SDS011;3708;42.632;23.378;2022-07-25T04:58:43;7.18;;;6.45;;
7334;SDS011;3708;42.632;23.378;2022-07-25T05:01:10;8.30;;;6.90;;
7334;SDS011;3708;42.632;23.378;2022-07-25T05:03:37;9.90;;;6.90;;
7334;SDS011;3708;42.632;23.378;2022-07-25T05:06:04;8.20;;;6.85;;
7334;SDS011;3708;42.632;23.378;2022-07-25T05:08:44;9.32;;;7.25;;
7334;SDS011;3708;42.632;23.378;2022-07-25T05:11:11;8.15;;;6.70;;
7334;SDS011;3708;42.632;23.378;2022-07-25T05:13:39;9.75;;;7.63;;
7334;SDS011;3708;42.632;23.378;2022-07-25T05:16:06;9.13;;;7.07;;
7334;SDS011;3708;42.632;23.378;2022-07-25T05:18:33;8.80;;;7.10;;
7334;SDS011;3708;42.632;23.378;2022-07-25T05:21:00;10.07;;;6.57;;
7334;SDS011;3708;42.632;23.378;2022-07-25T05:23:28;9.43;;;6.72;;
7334;SDS011;3708;42.632;23.378;2022-07-25T05:25:55;6.45;;;5.85;;
7334;SDS011;3708;42.632;23.378;2022-07-25T05:28:22;7.97;;;6.18;;
7334;SDS011;3708;42.632;23.378;2022-07-25T05:30:50;8.05;;;6.50;;
7334;SDS011;3708;42.632;23.378;2022-07-25T05:33:17;12.73;;;6.88;;
7334;SDS011;3708;42.632;23.378;2022-07-25T05:35:44;10.38;;;6.72;;
7334;SDS011;3708;42.632;23.378;2022-07-25T05:38:11;12.43;;;7.35;;
7334;SDS011;3708;42.632;23.378;2022-07-25T05:40:38;11.60;;;7.20;;
7334;SDS011;3708;42.632;23.378;2022-07-25T05:43:05;13.45;;;7.57;;
7334;SDS011;3708;42.632;23.378;2022-07-25T05:45:33;7.57;;;6.55;;
7334;SDS011;3708;42.632;23.378;2022-07-25T05:48:01;8.52;;;6.55;;
7334;SDS011;3708;42.632;23.378;2022-07-25T05:50:28;7.70;;;6.90;;
7334;SDS011;3708;42.632;23.378;2022-07-25T05:52:55;11.95;;;6.65;;
7334;SDS011;3708;42.632;23.378;2022-07-25T05:55:22;11.80;;;7.00;;
7334;SDS011;3708;42.632;23.378;2022-07-25T05:57:49;12.02;;;6.47;;
7334;SDS011;3708;42.632;23.378;2022-07-25T06:00:16;11.20;;;7.05;;
7334;SDS011;3708;42.632;23.378;2022-07-25T06:02:44;10.13;;;6.95;;
7334;SDS011;3708;42.632;23.378;2022-07-25T06:05:14;9.75;;;7.00;;
7334;SDS011;3708;42.632;23.378;2022-07-25T06:07:41;9.85;;;7.13;;
7334;SDS011;3708;42.632;23.378;2022-07-25T06:10:08;9.98;;;7.18;;
7334;SDS011;3708;42.632;23.378;2022-07-25T06:12:35;9.10;;;6.75;;
7334;SDS011;3708;42.632;23.378;2022-07-25T06:15:02;10.38;;;7.03;;
7334;SDS011;3708;42.632;23.378;2022-07-25T06:17:30;9.63;;;7.18;;
7334;SDS011;3708;42.632;23.378;2022-07-25T06:19:57;8.35;;;6.75;;
7334;SDS011;3708;42.632;23.378;2022-07-25T06:22:25;11.80;;;7.13;;
7334;SDS011;3708;42.632;23.378;2022-07-25T06:24:53;9.93;;;7.35;;
7334;SDS011;3708;42.632;23.378;2022-07-25T06:27:20;12.93;;;7.68;;
7334;SDS011;3708;42.632;23.378;2022-07-25T06:29:47;7.88;;;7.07;;
7334;SDS011;3708;42.632;23.378;2022-07-25T06:32:14;11.60;;;7.63;;
7334;SDS011;3708;42.632;23.378;2022-07-25T06:34:41;10.45;;;7.45;;
7334;SDS011;3708;42.632;23.378;2022-07-25T06:37:08;7.82;;;7.03;;
7334;SDS011;3708;42.632;23.378;2022-07-25T06:39:37;7.93;;;6.97;;
7334;SDS011;3708;42.632;23.378;2022-07-25T06:42:04;10.32;;;7.03;;
7334;SDS011;3708;42.632;23.378;2022-07-25T06:44:31;9.25;;;7.22;;
7334;SDS011;3708;42.632;23.378;2022-07-25T06:46:58;8.43;;;7.03;;
7334;SDS011;3708;42.632;23.378;2022-07-25T06:49:26;8.88;;;7.00;;
7334;SDS011;3708;42.632;23.378;2022-07-25T06:51:53;8.55;;;7.57;;
7334;SDS011;3708;42.632;23.378;2022-07-25T06:54:20;11.43;;;8.63;;
7334;SDS011;3708;42.632;23.378;2022-07-25T06:56:48;9.80;;;7.28;;
7334;SDS011;3708;42.632;23.378;2022-07-25T06:59:15;11.63;;;6.95;;
7334;SDS011;3708;42.632;23.378;2022-07-25T07:01:42;7.03;;;6.32;;
7334;SDS011;3708;42.632;23.378;2022-07-25T07:04:10;8.85;;;7.03;;
7334;SDS011;3708;42.632;23.378;2022-07-25T07:06:37;9.95;;;7.07;;
7334;SDS011;3708;42.632;23.378;2022-07-25T07:09:04;8.20;;;7.38;;
7334;SDS011;3708;42.632;23.378;2022-07-25T07:11:32;10.20;;;7.13;;
7334;SDS011;3708;42.632;23.378;2022-07-25T07:14:02;7.97;;;7.25;;
7334;SDS011;3708;42.632;23.378;2022-07-25T07:16:29;9.10;;;6.95;;
7334;SDS011;3708;42.632;23.378;2022-07-25T07:19:02;9.55;;;7.15;;
7334;SDS011;3708;42.632;23.378;2022-07-25T07:21:31;10.77;;;7.13;;
7334;SDS011;3708;42.632;23.378;2022-07-25T07:23:58;8.25;;;6.65;;
7334;SDS011;3708;42.632;23.378;2022-07-25T07:26:27;10.23;;;7.75;;
7334;SDS011;3708;42.632;23.378;2022-07-25T07:28:55;8.43;;;7.20;;
7334;SDS011;3708;42.632;23.378;2022-07-25T07:31:28;8.30;;;6.95;;
7334;SDS011;3708;42.632;23.378;2022-07-25T07:34:21;11.55;;;7.32;;
7334;SDS011;3708;42.632;23.378;2022-07-25T07:42:38;11.85;;;7.85;;
7334;SDS011;3708;42.632;23.378;2022-07-25T07:45:24;8.18;;;7.28;;
7334;SDS011;3708;42.632;23.378;2022-07-25T07:51:21;8.73;;;6.97;;
7334;SDS011;3708;42.632;23.378;2022-07-25T07:53:48;10.55;;;6.95;;
7334;SDS011;3708;42.632;23.378;2022-07-25T07:56:33;8.20;;;7.25;;
7334;SDS011;3708;42.632;23.378;2022-07-25T07:59:03;7.55;;;6.75;;
7334;SDS011;3708;42.632;23.378;2022-07-25T08:01:45;9.40;;;7.78;;
7334;SDS011;3708;42.632;23.378;2022-07-25T08:04:15;7.85;;;7.05;;
7334;SDS011;3708;42.632;23.378;2022-07-25T08:06:49;8.77;;;6.93;;
7334;SDS011;3708;42.632;23.378;2022-07-25T08:09:19;7.43;;;6.72;;
7334;SDS011;3708;42.632;23.378;2022-07-25T08:11:50;9.40;;;6.85;;
7334;SDS011;3708;42.632;23.378;2022-07-25T08:14:19;7.97;;;7.28;;
7334;SDS011;3708;42.632;23.378;2022-07-25T08:16:47;7.72;;;6.70;;
7334;SDS011;3708;42.632;23.378;2022-07-25T08:19:21;6.78;;;6.10;;
7334;SDS011;3708;42.632;23.378;2022-07-25T08:21:50;8.05;;;7.22;;
7334;SDS011;3708;42.632;23.378;2022-07-25T08:24:18;10.43;;;7.30;;
7334;SDS011;3708;42.632;23.378;2022-07-25T08:26:45;11.68;;;7.05;;
7334;SDS011;3708;42.632;23.378;2022-07-25T08:29:12;8.85;;;7.00;;
7334;SDS011;3708;42.632;23.378;2022-07-25T08:31:41;10.07;;;6.68;;
7334;SDS011;3708;42.632;23.378;2022-07-25T08:34:08;8.30;;;6.95;;
7334;SDS011;3708;42.632;23.378;2022-07-25T08:36:38;7.43;;;6.63;;
7334;SDS011;3708;42.632;23.378;2022-07-25T08:39:04;7.70;;;6.20;;
7334;SDS011;3708;42.632;23.378;2022-07-25T08:41:32;9.25;;;7.40;;
7334;SDS011;3708;42.632;23.378;2022-07-25T08:43:59;9.45;;;6.80;;
7334;SDS011;3708;42.632;23.378;2022-07-25T08:46:30;9.18;;;6.80;;
7334;SDS011;3708;42.632;23.378;2022-07-25T08:48:58;7.75;;;6.50;;
7334;SDS011;3708;42.632;23.378;2022-07-25T08:51:28;7.35;;;6.43;;
7334;SDS011;3708;42.632;23.378;2022-07-25T08:54:00;7.97;;;6.93;;
7334;SDS011;3708;42.632;23.378;2022-07-25T08:56:35;10.23;;;6.80;;
7334;SDS011;3708;42.632;23.378;2022-07-25T08:59:03;8.82;;;6.78;;
7334;SDS011;3708;42.632;23.378;2022-07-25T09:01:31;9.35;;;7.03;;
7334;SDS011;3708;42.632;23.378;2022-07-25T09:03:58;10.10;;;6.63;;
7334;SDS011;3708;42.632;23.378;2022-07-25T09:06:25;7.28;;;6.57;;
7334;SDS011;3708;42.632;23.378;2022-07-25T09:08:53;11.15;;;6.78;;
7334;SDS011;3708;42.632;23.378;2022-07-25T09:11:29;8.55;;;7.03;;
7334;SDS011;3708;42.632;23.378;2022-07-25T09:14:00;7.25;;;6.55;;
7334;SDS011;3708;42.632;23.378;2022-07-25T09:16:29;7.45;;;6.80;;
7334;SDS011;3708;42.632;23.378;2022-07-25T09:19:08;6.72;;;6.13;;
7334;SDS011;3708;42.632;23.378;2022-07-25T09:21:36;11.70;;;7.78;;
7334;SDS011;3708;42.632;23.378;2022-07-25T09:24:07;8.52;;;7.20;;
7334;SDS011;3708;42.632;23.378;2022-07-25T09:26:44;7.35;;;6.65;;
7334;SDS011;3708;42.632;23.378;2022-07-25T09:29:19;9.57;;;7.10;;
7334;SDS011;3708;42.632;23.378;2022-07-25T09:31:47;8.15;;;6.65;;
7334;SDS011;3708;42.632;23.378;2022-07-25T09:34:28;10.10;;;6.35;;
7334;SDS011;3708;42.632;23.378;2022-07-25T09:36:59;7.22;;;6.53;;
7334;SDS011;3708;42.632;23.378;2022-07-25T09:39:35;7.32;;;6.63;;
7334;SDS011;3708;42.632;23.378;2022-07-25T09:42:20;8.98;;;6.90;;
7334;SDS011;3708;42.632;23.378;2022-07-25T09:44:58;7.78;;;6.80;;
7334;SDS011;3708;42.632;23.378;2022-07-25T09:47:27;9.45;;;6.90;;
7334;SDS011;3708;42.632;23.378;2022-07-25T09:49:54;8.15;;;6.75;;
7334;SDS011;3708;42.632;23.378;2022-07-25T09:52:22;7.95;;;6.47;;
7334;SDS011;3708;42.632;23.378;2022-07-25T09:54:49;8.80;;;6.15;;
7334;SDS011;3708;42.632;23.378;2022-07-25T09:57:16;7.45;;;6.68;;
7334;SDS011;3708;42.632;23.378;2022-07-25T09:59:44;12.27;;;6.78;;
7334;SDS011;3708;42.632;23.378;2022-07-25T10:02:13;7.25;;;6.25;;
7334;SDS011;3708;42.632;23.378;2022-07-25T10:04:50;8.65;;;5.90;;
7334;SDS011;3708;42.632;23.378;2022-07-25T10:07:25;7.30;;;6.53;;
7334;SDS011;3708;42.632;23.378;2022-07-25T10:09:53;9.20;;;6.30;;
7334;SDS011;3708;42.632;23.378;2022-07-25T10:12:22;7.30;;;6.05;;
7334;SDS011;3708;42.632;23.378;2022-07-25T10:15:07;7.53;;;6.15;;
7334;SDS011;3708;42.632;23.378;2022-07-25T10:17:37;10.00;;;6.40;;
7334;SDS011;3708;42.632;23.378;2022-07-25T10:20:06;8.57;;;6.30;;
7334;SDS011;3708;42.632;23.378;2022-07-25T10:22:36;7.72;;;5.30;;
7334;SDS011;3708;42.632;23.378;2022-07-25T10:25:08;8.10;;;5.65;;
7334;SDS011;3708;42.632;23.378;2022-07-25T10:27:41;6.45;;;5.85;;
7334;SDS011;3708;42.632;23.378;2022-07-25T10:30:20;6.25;;;5.70;;
7334;SDS011;3708;42.632;23.378;2022-07-25T10:32:49;7.47;;;5.25;;
7334;SDS011;3708;42.632;23.378;2022-07-25T10:35:16;8.07;;;5.50;;
7334;SDS011;3708;42.632;23.378;2022-07-25T10:37:44;7.00;;;5.88;;
7334;SDS011;3708;42.632;23.378;2022-07-25T10:40:23;8.13;;;5.95;;
7334;SDS011;3708;42.632;23.378;2022-07-25T10:42:59;10.27;;;5.80;;
7334;SDS011;3708;42.632;23.378;2022-07-25T10:45:34;6.40;;;5.80;;
7334;SDS011;3708;42.632;23.378;2022-07-25T10:48:06;7.57;;;5.70;;
7334;SDS011;3708;42.632;23.378;2022-07-25T10:50:45;8.93;;;5.60;;
7334;SDS011;3708;42.632;23.378;2022-07-25T10:53:13;9.57;;;5.95;;
7334;SDS011;3708;42.632;23.378;2022-07-25T10:55:42;6.60;;;5.90;;
7334;SDS011;3708;42.632;23.378;2022-07-25T10:58:21;5.97;;;5.38;;
7334;SDS011;3708;42.632;23.378;2022-07-25T11:00:50;6.32;;;5.72;;
7334;SDS011;3708;42.632;23.378;2022-07-25T11:03:17;7.55;;;5.25;;
7334;SDS011;3708;42.632;23.378;2022-07-25T11:05:46;10.07;;;4.90;;
7334;SDS011;3708;42.632;23.378;2022-07-25T11:08:15;7.03;;;4.88;;
7334;SDS011;3708;42.632;23.378;2022-07-25T11:10:49;6.15;;;5.28;;
7334;SDS011;3708;42.632;23.378;2022-07-25T11:13:18;5.85;;;5.28;;
7334;SDS011;3708;42.632;23.378;2022-07-25T11:15:58;6.18;;;5.20;;
7334;SDS011;3708;42.632;23.378;2022-07-25T11:18:32;7.75;;;5.15;;
7334;SDS011;3708;42.632;23.378;2022-07-25T11:21:00;6.70;;;5.57;;
7334;SDS011;3708;42.632;23.378;2022-07-25T11:23:31;5.63;;;5.07;;
7334;SDS011;3708;42.632;23.378;2022-07-25T11:26:08;5.60;;;5.00;;
7334;SDS011;3708;42.632;23.378;2022-07-25T11:28:39;6.38;;;4.88;;
7334;SDS011;3708;42.632;23.378;2022-07-25T11:31:11;6.00;;;5.03;;
7334;SDS011;3708;42.632;23.378;2022-07-25T11:33:39;6.15;;;5.38;;
7334;SDS011;3708;42.632;23.378;2022-07-25T11:36:09;6.13;;;5.53;;
7334;SDS011;3708;42.632;23.378;2022-07-25T11:38:37;5.95;;;4.97;;
7334;SDS011;3708;42.632;23.378;2022-07-25T11:41:07;6.25;;;5.45;;
7334;SDS011;3708;42.632;23.378;2022-07-25T11:43:36;5.65;;;5.10;;
7334;SDS011;3708;42.632;23.378;2022-07-25T11:46:04;6.93;;;5.25;;
7334;SDS011;3708;42.632;23.378;2022-07-25T11:48:36;6.32;;;5.72;;
7334;SDS011;3708;42.632;23.378;2022-07-25T11:51:12;7.68;;;5.40;;
7334;SDS011;3708;42.632;23.378;2022-07-25T11:53:42;9.00;;;5.75;;
7334;SDS011;3708;42.632;23.378;2022-07-25T11:56:11;6.55;;;5.32;;
7334;SDS011;3708;42.632;23.378;2022-07-25T11:58:39;6.72;;;5.53;;
7334;SDS011;3708;42.632;23.378;2022-07-25T12:01:15;8.32;;;5.32;;
7334;SDS011;3708;42.632;23.378;2022-07-25T12:03:44;7.45;;;5.35;;
7334;SDS011;3708;42.632;23.378;2022-07-25T12:06:14;6.45;;;5.05;;
7334;SDS011;3708;42.632;23.378;2022-07-25T12:08:41;11.88;;;5.15;;
7334;SDS011;3708;42.632;23.378;2022-07-25T12:11:18;6.60;;;5.07;;
7334;SDS011;3708;42.632;23.378;2022-07-25T12:13:48;5.18;;;4.68;;
7334;SDS011;3708;42.632;23.378;2022-07-25T12:16:15;6.20;;;4.82;;
7334;SDS011;3708;42.632;23.378;2022-07-25T12:18:44;5.78;;;5.00;;
7334;SDS011;3708;42.632;23.378;2022-07-25T12:21:11;5.78;;;5.25;;
7334;SDS011;3708;42.632;23.378;2022-07-25T12:23:41;5.97;;;5.35;;
7334;SDS011;3708;42.632;23.378;2022-07-25T12:26:09;6.47;;;5.47;;
7334;SDS011;3708;42.632;23.378;2022-07-25T12:28:39;9.50;;;5.80;;
7334;SDS011;3708;42.632;23.378;2022-07-25T12:31:07;7.32;;;5.15;;
7334;SDS011;3708;42.632;23.378;2022-07-25T12:33:35;6.05;;;5.45;;
7334;SDS011;3708;42.632;23.378;2022-07-25T12:36:04;6.55;;;5.13;;
7334;SDS011;3708;42.632;23.378;2022-07-25T12:38:32;6.40;;;5.15;;
7334;SDS011;3708;42.632;23.378;2022-07-25T12:40:59;6.13;;;5.53;;
7334;SDS011;3708;42.632;23.378;2022-07-25T12:43:26;13.13;;;5.82;;
7334;SDS011;3708;42.632;23.378;2022-07-25T12:45:53;5.82;;;5.22;;
7334;SDS011;3708;42.632;23.378;2022-07-25T12:48:20;8.93;;;5.13;;
7334;SDS011;3708;42.632;23.378;2022-07-25T12:50:47;6.63;;;5.45;;
7334;SDS011;3708;42.632;23.378;2022-07-25T12:53:15;6.18;;;5.65;;
7334;SDS011;3708;42.632;23.378;2022-07-25T12:55:43;6.82;;;5.70;;
7334;SDS011;3708;42.632;23.378;2022-07-25T12:58:10;6.95;;;5.45;;
7334;SDS011;3708;42.632;23.378;2022-07-25T13:00:39;7.15;;;5.80;;
7334;SDS011;3708;42.632;23.378;2022-07-25T13:03:06;5.95;;;5.00;;
7334;SDS011;3708;42.632;23.378;2022-07-25T13:05:33;5.38;;;4.90;;
7334;SDS011;3708;42.632;23.378;2022-07-25T13:08:02;7.82;;;5.22;;
7334;SDS011;3708;42.632;23.378;2022-07-25T13:10:31;5.60;;;4.88;;
7334;SDS011;3708;42.632;23.378;2022-07-25T13:12:58;7.28;;;5.10;;
7334;SDS011;3708;42.632;23.378;2022-07-25T13:15:25;5.53;;;4.97;;
7334;SDS011;3708;42.632;23.378;2022-07-25T13:17:55;5.00;;;4.60;;
7334;SDS011;3708;42.632;23.378;2022-07-25T13:20:22;5.93;;;5.22;;
7334;SDS011;3708;42.632;23.378;2022-07-25T13:22:49;5.43;;;4.75;;
7334;SDS011;3708;42.632;23.378;2022-07-25T13:25:16;5.43;;;4.78;;
7334;SDS011;3708;42.632;23.378;2022-07-25T13:27:44;7.78;;;5.47;;
7334;SDS011;3708;42.632;23.378;2022-07-25T13:30:13;7.60;;;5.03;;
7334;SDS011;3708;42.632;23.378;2022-07-25T13:32:40;13.13;;;5.95;;
7334;SDS011;3708;42.632;23.378;2022-07-25T13:35:07;5.22;;;4.70;;
7334;SDS011;3708;42.632;23.378;2022-07-25T13:37:35;7.38;;;4.60;;
7334;SDS011;3708;42.632;23.378;2022-07-25T13:40:02;8.05;;;5.18;;
7334;SDS011;3708;42.632;23.378;2022-07-25T13:42:30;5.82;;;5.18;;
7334;SDS011;3708;42.632;23.378;2022-07-25T13:44:59;5.13;;;4.60;;
7334;SDS011;3708;42.632;23.378;2022-07-25T13:47:26;5.40;;;4.72;;
7334;SDS011;3708;42.632;23.378;2022-07-25T13:49:54;10.23;;;8.38;;
7334;SDS011;3708;42.632;23.378;2022-07-25T13:52:21;5.55;;;4.95;;
7334;SDS011;3708;42.632;23.378;2022-07-25T13:54:48;5.28;;;4.72;;
7334;SDS011;3708;42.632;23.378;2022-07-25T13:57:15;6.70;;;5.13;;
7334;SDS011;3708;42.632;23.378;2022-07-25T13:59:43;6.78;;;5.10;;
7334;SDS011;3708;42.632;23.378;2022-07-25T14:02:12;5.75;;;4.85;;
7334;SDS011;3708;42.632;23.378;2022-07-25T14:04:39;5.68;;;4.50;;
7334;SDS011;3708;42.632;23.378;2022-07-25T14:07:06;4.90;;;4.40;;
7334;SDS011;3708;42.632;23.378;2022-07-25T14:09:33;5.18;;;4.68;;
7334;SDS011;3708;42.632;23.378;2022-07-25T14:12:00;5.60;;;5.10;;
7334;SDS011;3708;42.632;23.378;2022-07-25T14:14:27;5.20;;;4.70;;
7334;SDS011;3708;42.632;23.378;2022-07-25T14:17:01;5.03;;;4.53;;
7334;SDS011;3708;42.632;23.378;2022-07-25T14:19:30;5.80;;;4.40;;
7334;SDS011;3708;42.632;23.378;2022-07-25T14:21:57;7.20;;;5.03;;
7334;SDS011;3708;42.632;23.378;2022-07-25T14:24:24;6.72;;;5.07;;
7334;SDS011;3708;42.632;23.378;2022-07-25T14:26:52;5.90;;;4.82;;
7334;SDS011;3708;42.632;23.378;2022-07-25T14:29:19;7.43;;;5.32;;
7334;SDS011;3708;42.632;23.378;2022-07-25T14:31:48;7.57;;;5.50;;
7334;SDS011;3708;42.632;23.378;2022-07-25T14:34:17;7.65;;;4.70;;
7334;SDS011;3708;42.632;23.378;2022-07-25T14:36:51;6.90;;;5.45;;
7334;SDS011;3708;42.632;23.378;2022-07-25T14:39:21;8.82;;;5.60;;
7334;SDS011;3708;42.632;23.378;2022-07-25T14:41:51;6.38;;;5.13;;
7334;SDS011;3708;42.632;23.378;2022-07-25T14:44:19;7.60;;;5.05;;
7334;SDS011;3708;42.632;23.378;2022-07-25T14:46:46;6.68;;;5.53;;
7334;SDS011;3708;42.632;23.378;2022-07-25T14:49:14;5.65;;;5.15;;
7334;SDS011;3708;42.632;23.378;2022-07-25T14:51:44;6.65;;;5.03;;
7334;SDS011;3708;42.632;23.378;2022-07-25T14:54:12;5.45;;;4.95;;
7334;SDS011;3708;42.632;23.378;2022-07-25T14:56:40;8.38;;;6.05;;
7334;SDS011;3708;42.632;23.378;2022-07-25T14:59:08;8.27;;;5.95;;
7334;SDS011;3708;42.632;23.378;2022-07-25T15:01:36;10.40;;;5.43;;
7334;SDS011;3708;42.632;23.378;2022-07-25T15:04:04;6.30;;;5.53;;
7334;SDS011;3708;42.632;23.378;2022-07-25T15:06:32;7.65;;;6.72;;
7334;SDS011;3708;42.632;23.378;2022-07-25T15:08:59;8.07;;;6.45;;
7334;SDS011;3708;42.632;23.378;2022-07-25T15:11:27;7.57;;;5.63;;
7334;SDS011;3708;42.632;23.378;2022-07-25T15:13:54;9.20;;;6.63;;